This is the latest recevied weather packets stored in our database for station/object WX6YYZ. If no packets are shown the sender has not sent any weather packets the latest 10 day(s).
| Time | Temp. | Humidity | Pressure | Rain* | Wind** | Luminosity | Snow |
|---|---|---|---|---|---|---|---|
| 1777442467 | 14.44° C | 66% | 1018.3 hPa | 0 mm | - | - | - |
| 1777442136 | 14.44° C | 66% | 1018.3 hPa | 0 mm | - | - | - |
| 1777441835 | 14.44° C | 66% | 1018.3 hPa | 0 mm | - | - | - |
| 1777441503 | 14.44° C | 65% | 1018.3 hPa | 0 mm | - | - | - |
| 1777439965 | 14.44° C | 63% | 1018.3 hPa | 0 mm | - | - | - |
| 1777438761 | 15° C | 61% | 1018.3 hPa | 0 mm | - | - | - |
| 1777438159 | 15° C | 60% | 1017.9 hPa | 0 mm | - | - | - |
| 1777437256 | 15.56° C | 58% | 1017.6 hPa | 0 mm | - | - | - |
| 1777434185 | 16.11° C | 55% | 1017.3 hPa | 0 mm | - | - | - |
| 1777432284 | 16.67° C | 53% | 1016.6 hPa | 0 mm | - | - | - |
| 1777428880 | 18.33° C | 48% | 1016.3 hPa | 0 mm | - | - | - |
| 1777428579 | 18.33° C | 48% | 1016.3 hPa | 0 mm | - | - | - |
| 1777426077 | 19.44° C | 46% | 1015.9 hPa | 0 mm | - | - | - |
| 1777424271 | 20.56° C | 44% | 1015.9 hPa | 0 mm | - | - | - |
| 1777422766 | 21.11° C | 42% | 1015.9 hPa | 0 mm | - | - | - |
| 1777421530 | 21.11° C | 43% | 1015.9 hPa | 0 mm | - | - | - |
| 1777417523 | 21.67° C | 44% | 1015.9 hPa | 0 mm | - | - | - |
| 1777416288 | 22.22° C | 43% | 1015.9 hPa | 0 mm | - | - | - |
| 1777414451 | 22.78° C | 39% | 1015.9 hPa | 0 mm | - | - | - |
| 1777413548 | 23.33° C | 38% | 1015.9 hPa | 0 mm | - | - | - |
| 1777413247 | 23.33° C | 36% | 1015.9 hPa | 0 mm | - | - | - |
| 1777412646 | 23.33° C | 36% | 1015.9 hPa | 0 mm | - | - | - |
| 1777410507 | 22.78° C | 37% | 1016.6 hPa | 0 mm | - | - | - |
| 1777410206 | 22.78° C | 36% | 1016.6 hPa | 0 mm | - | - | - |
| 1777409604 | 22.22° C | 36% | 1016.6 hPa | 0 mm | - | - | - |
* Rain latest hour (hover to see other rain measurements)
** Current wind speed in m/s (hover to see current wind gust speed)